Time;durP1;ratioP1;P1;durP2;ratioP2;P2;SDS_P1;SDS_P2;PMS_P1;PMS_P2;Temp;Humidity;BMP_temperature;BMP_pressure;BME280_temperature;BME280_humidity;BME280_pressure;Samples;Min_cycle;Max_cycle;Signal;HPM_P1;HPM_P2
2023/04/15 00:02:19;;;;;;;0.20;0.20;;;;;;;10.65;96.77;99639.19;4995999;28;20061;-64
2023/04/15 00:04:46;;;;;;;0.20;0.20;;;;;;;10.60;96.74;99640.34;4994656;28;20121;-63
2023/04/15 00:07:12;;;;;;;0.20;0.20;;;;;;;10.44;98.75;99632.16;4994192;28;20022;-64
2023/04/15 00:09:38;;;;;;;0.20;0.20;;;;;;;10.40;98.64;99630.50;4993539;28;20031;-63
2023/04/15 00:12:06;;;;;;;0.20;0.20;;;;;;;10.38;99.26;99635.63;4994155;28;20034;-63
2023/04/15 00:14:34;;;;;;;0.20;0.20;;;;;;;10.41;99.54;99626.53;4994824;28;20026;-64
2023/04/15 00:17:03;;;;;;;0.20;0.20;;;;;;;10.34;99.79;99627.25;4993528;28;20120;-63
2023/04/15 00:19:29;;;;;;;0.20;0.20;;;;;;;10.38;99.72;99627.28;4993521;28;20596;-63
2023/04/15 00:21:58;;;;;;;0.20;0.20;;;;;;;10.40;100.00;99631.31;4993456;28;20080;-64
2023/04/15 00:24:26;;;;;;;0.20;0.20;;;;;;;10.40;100.00;99625.75;4993444;28;20483;-64
2023/04/15 00:26:52;;;;;;;0.20;0.20;;;;;;;10.52;99.71;99627.50;4993659;28;20100;-64
2023/04/15 00:29:20;;;;;;;0.25;0.25;;;;;;;10.58;98.97;99631.56;4993152;28;20046;-64
2023/04/15 00:31:48;;;;;;;0.20;0.20;;;;;;;10.54;99.20;99632.69;4993278;28;20029;-64
2023/04/15 00:34:14;;;;;;;0.20;0.20;;;;;;;10.51;99.56;99620.34;4993846;28;20129;-64
2023/04/15 00:36:42;;;;;;;0.20;0.20;;;;;;;10.44;99.98;99623.81;4993814;28;20491;-64
2023/04/15 00:39:07;;;;;;;0.20;0.20;;;;;;;10.39;100.00;99620.56;4993829;28;20384;-65
2023/04/15 00:41:38;;;;;;;0.30;0.30;;;;;;;10.40;100.00;99620.19;4993211;28;20034;-64
2023/04/15 00:44:07;;;;;;;0.20;0.20;;;;;;;10.43;100.00;99613.84;4993513;28;20030;-64
2023/04/15 00:46:35;;;;;;;0.20;0.20;;;;;;;10.37;100.00;99607.03;4993179;28;20113;-64
2023/04/15 00:49:05;;;;;;;0.20;0.20;;;;;;;10.35;100.00;99605.81;4994189;28;20498;-65
2023/04/15 00:51:35;;;;;;;0.20;0.20;;;;;;;10.31;100.00;99594.63;4993442;28;20477;-64
2023/04/15 00:54:11;;;;;;;0.20;0.20;;;;;;;10.28;100.00;99600.94;4993349;28;20058;-64
2023/04/15 00:56:38;;;;;;;0.20;0.20;;;;;;;10.39;100.00;99601.91;4993294;28;20118;-64
2023/04/15 00:59:10;;;;;;;0.20;0.20;;;;;;;10.27;100.00;99602.09;4993298;28;20109;-63
2023/04/15 01:01:36;;;;;;;0.20;0.20;;;;;;;10.29;99.99;99602.53;4993047;28;20034;-64
2023/04/15 01:04:05;;;;;;;0.20;0.20;;;;;;;10.32;99.71;99601.78;4994600;28;20469;-64
2023/04/15 01:06:34;;;;;;;0.20;0.20;;;;;;;10.31;99.62;99602.97;4993556;28;20033;-64
2023/04/15 01:08:59;;;;;;;0.20;0.20;;;;;;;10.35;99.52;99605.81;4992946;28;20030;-64
2023/04/15 01:11:29;;;;;;;0.20;0.20;;;;;;;10.36;99.39;99605.41;4992878;28;20026;-64
2023/04/15 01:13:58;;;;;;;0.20;0.20;;;;;;;10.37;99.34;99598.69;4994495;28;20484;-64
2023/04/15 01:16:25;;;;;;;0.20;0.20;;;;;;;10.21;100.00;99587.69;4993203;28;20053;-64
2023/04/15 01:18:54;;;;;;;0.20;0.20;;;;;;;10.29;100.00;99602.53;4993382;28;20532;-64
2023/04/15 01:21:22;;;;;;;0.20;0.20;;;;;;;10.23;100.00;99599.28;4992875;28;20026;-64
2023/04/15 01:23:48;;;;;;;0.20;0.20;;;;;;;10.31;100.00;99600.19;4993464;28;20125;-64
2023/04/15 01:26:16;;;;;;;0.20;0.20;;;;;;;10.40;99.71;99606.28;4993352;28;20439;-63
2023/04/15 01:28:42;;;;;;;0.20;0.20;;;;;;;10.30;99.56;99601.38;4992711;28;20109;-64
2023/04/15 01:31:12;;;;;;;0.20;0.20;;;;;;;10.27;100.00;99599.31;4992980;28;20030;-64
2023/04/15 01:33:39;;;;;;;0.20;0.20;;;;;;;10.32;100.00;99603.75;4993393;28;20042;-63
2023/04/15 01:36:07;;;;;;;0.20;0.20;;;;;;;10.28;100.00;99592.59;4992857;28;20061;-64
2023/04/15 01:38:33;;;;;;;0.20;0.20;;;;;;;10.33;100.00;99608.94;4996392;28;20065;-64
2023/04/15 01:41:03;;;;;;;0.28;0.28;;;;;;;10.27;99.89;99599.31;4996455;28;20022;-64
2023/04/15 01:43:29;;;;;;;0.20;0.20;;;;;;;10.32;99.47;99606.53;4996691;28;20030;-63
2023/04/15 01:45:57;;;;;;;0.20;0.20;;;;;;;10.25;100.00;99604.47;4996867;28;20133;-64
2023/04/15 01:48:23;;;;;;;0.20;0.20;;;;;;;10.24;100.00;99602.88;4996492;28;20472;-64
2023/04/15 01:50:52;;;;;;;0.20;0.20;;;;;;;10.29;99.89;99607.31;4996182;28;20029;-64
2023/04/15 01:53:20;;;;;;;0.20;0.20;;;;;;;10.32;99.82;99596.22;4996165;28;20030;-64
2023/04/15 01:55:48;;;;;;;0.20;0.20;;;;;;;10.30;99.36;99590.25;4997674;28;20030;-63
2023/04/15 01:58:13;;;;;;;0.20;0.20;;;;;;;10.34;99.76;99591.09;4995978;28;20046;-63
2023/04/15 02:00:47;;;;;;;0.20;0.20;;;;;;;10.30;99.65;99583.88;4996013;28;20026;-63
2023/04/15 02:03:12;;;;;;;0.20;0.20;;;;;;;10.27;100.00;99581.84;4996534;28;20485;-63
2023/04/15 02:05:41;;;;;;;0.20;0.20;;;;;;;10.27;99.61;99582.63;4995981;28;20066;-63
2023/04/15 02:08:07;;;;;;;0.20;0.20;;;;;;;10.32;99.31;99585.09;4996452;28;20038;-63
2023/04/15 02:10:32;;;;;;;0.20;0.20;;;;;;;10.22;98.21;99569.03;4995803;28;20069;-63
2023/04/15 02:13:00;;;;;;;0.20;0.20;;;;;;;10.07;99.53;99572.81;4995816;28;20113;-62
2023/04/15 02:15:26;;;;;;;0.20;0.20;;;;;;;9.98;100.00;99576.63;4996316;28;20473;-63
2023/04/15 02:17:54;;;;;;;0.20;0.20;;;;;;;9.94;100.00;99586.88;4996015;28;20038;-63
2023/04/15 02:20:22;;;;;;;0.20;0.20;;;;;;;9.93;100.00;99578.94;4995731;28;20027;-63
2023/04/15 02:22:50;;;;;;;0.20;0.20;;;;;;;9.97;100.00;99579.78;4995907;28;20061;-64
2023/04/15 02:25:16;;;;;;;0.20;0.20;;;;;;;10.06;100.00;99571.19;4995563;28;20033;-63
2023/04/15 02:27:43;;;;;;;0.20;0.20;;;;;;;10.12;100.00;99578.84;4995516;28;20034;-63
2023/04/15 02:30:11;;;;;;;0.20;0.20;;;;;;;10.09;100.00;99576.78;4995158;28;20140;-63
2023/04/15 02:32:42;;;;;;;0.20;0.20;;;;;;;10.09;100.00;99581.56;4997232;28;20030;-63
2023/04/15 02:35:11;;;;;;;0.20;0.20;;;;;;;10.10;100.00;99583.16;4996570;28;20034;-63
2023/04/15 02:37:42;;;;;;;0.20;0.20;;;;;;;10.21;100.00;99573.00;4995418;28;20113;-63
2023/04/15 02:40:17;;;;;;;0.20;0.20;;;;;;;10.27;100.00;99588.19;4996609;28;20105;-63
2023/04/15 02:42:43;;;;;;;0.20;0.20;;;;;;;10.31;99.77;99591.03;4995566;28;20050;-64
2023/04/15 02:45:12;;;;;;;0.20;0.20;;;;;;;10.30;100.00;99586.66;4995241;28;20499;-64
2023/04/15 02:47:40;;;;;;;0.20;0.20;;;;;;;10.31;100.00;99582.69;4995085;28;20033;-64
2023/04/15 02:50:11;;;;;;;0.20;0.20;;;;;;;10.26;100.00;99586.59;4995641;28;20440;-64
2023/04/15 02:52:41;;;;;;;0.20;0.20;;;;;;;10.36;99.57;99585.16;4996402;28;20022;-64
2023/04/15 02:55:07;;;;;;;0.20;0.20;;;;;;;10.28;100.00;99581.47;4996646;28;20030;-64
2023/04/15 02:57:36;;;;;;;0.20;0.20;;;;;;;10.31;100.00;99580.72;4995281;28;20069;-64
2023/04/15 03:00:02;;;;;;;0.20;0.20;;;;;;;10.42;100.00;99576.09;4994969;28;20026;-64
2023/04/15 03:02:33;;;;;;;0.20;0.20;;;;;;;10.39;100.00;99585.22;4995209;28;20077;-64
2023/04/15 03:05:01;;;;;;;0.20;0.20;;;;;;;10.24;99.72;99566.72;4995669;28;20338;-64
2023/04/15 03:07:27;;;;;;;0.20;0.20;;;;;;;10.22;100.00;99569.81;4995402;28;20023;-64
2023/04/15 03:09:55;;;;;;;0.20;0.20;;;;;;;10.18;100.00;99573.75;4995267;28;20096;-64
2023/04/15 03:12:20;;;;;;;0.20;0.20;;;;;;;10.11;100.00;99568.06;4994720;28;20038;-64
2023/04/15 03:14:48;;;;;;;0.20;0.20;;;;;;;10.15;100.00;99563.38;4994928;28;20031;-64
2023/04/15 03:17:16;;;;;;;0.25;0.25;;;;;;;10.12;100.00;99558.56;4995433;28;20420;-64
2023/04/15 03:19:43;;;;;;;0.20;0.20;;;;;;;10.27;100.00;99571.50;4996097;28;20105;-64
2023/04/15 03:22:10;;;;;;;0.20;0.20;;;;;;;10.29;100.00;99562.81;4996090;28;20114;-64
2023/04/15 03:24:36;;;;;;;0.20;0.20;;;;;;;10.26;100.00;99552.44;4994741;28;20034;-64
2023/04/15 03:27:06;;;;;;;0.20;0.20;;;;;;;10.32;100.00;99556.50;4994431;28;20523;-64
2023/04/15 03:29:32;;;;;;;0.20;0.20;;;;;;;10.32;100.00;99551.72;4993880;28;20081;-64
2023/04/15 03:31:58;;;;;;;0.20;0.20;;;;;;;10.27;100.00;99549.28;4994399;28;20031;-64
2023/04/15 03:34:23;;;;;;;0.20;0.20;;;;;;;10.24;100.00;99558.38;4994826;28;20031;-64
2023/04/15 03:36:51;;;;;;;0.20;0.20;;;;;;;10.25;100.00;99562.75;4994287;28;20377;-64
2023/04/15 03:39:17;;;;;;;0.20;0.20;;;;;;;10.34;100.00;99560.50;4994996;28;20041;-65
2023/04/15 03:41:45;;;;;;;0.20;0.20;;;;;;;10.39;100.00;99570.50;4995689;28;20469;-64
2023/04/15 03:44:13;;;;;;;0.20;0.20;;;;;;;10.47;100.00;99570.22;4994356;28;20035;-65
2023/04/15 03:46:41;;;;;;;0.20;0.20;;;;;;;10.43;100.00;99561.00;4994345;28;20031;-64
2023/04/15 03:49:07;;;;;;;0.20;0.20;;;;;;;10.39;100.00;99568.53;4994830;28;20040;-64
2023/04/15 03:51:35;;;;;;;0.20;0.20;;;;;;;10.35;100.00;99562.13;4993909;28;20117;-65
2023/04/15 03:54:01;;;;;;;0.20;0.20;;;;;;;10.42;100.00;99576.09;4978679;28;20373;-64
2023/04/15 03:56:28;;;;;;;0.20;0.20;;;;;;;10.36;100.00;99569.28;4994095;28;20034;-64
2023/04/15 03:58:57;;;;;;;0.20;0.20;;;;;;;10.26;100.00;99558.00;4993764;28;20078;-64
2023/04/15 04:01:22;;;;;;;0.20;0.20;;;;;;;10.26;100.00;99571.91;4994092;28;20034;-64
2023/04/15 04:03:50;;;;;;;0.20;0.20;;;;;;;10.16;100.00;99564.97;4993756;28;20057;-65
2023/04/15 04:06:15;;;;;;;0.20;0.20;;;;;;;10.15;100.00;99568.94;4994311;28;20042;-64
2023/04/15 04:08:46;;;;;;;0.20;0.20;;;;;;;10.11;100.00;99559.72;4994261;28;20073;-64
2023/04/15 04:11:12;;;;;;;0.20;0.20;;;;;;;10.09;100.00;99564.88;4993820;28;20121;-64
2023/04/15 04:13:38;;;;;;;0.20;0.20;;;;;;;10.08;100.00;99557.72;4994193;28;20053;-64
2023/04/15 04:16:06;;;;;;;0.20;0.20;;;;;;;10.08;100.00;99558.53;4993557;28;20030;-64
2023/04/15 04:18:34;;;;;;;0.20;0.20;;;;;;;10.14;100.00;99556.22;4993564;28;20093;-65
2023/04/15 04:21:00;;;;;;;0.20;0.20;;;;;;;10.22;100.00;99560.69;4993518;28;20022;-65
2023/04/15 04:23:25;;;;;;;0.20;0.20;;;;;;;10.20;100.00;99563.84;4993499;28;20038;-65
2023/04/15 04:25:52;;;;;;;0.20;0.20;;;;;;;10.22;100.00;99567.03;4993743;28;20117;-66
2023/04/15 04:28:20;;;;;;;0.20;0.20;;;;;;;10.25;100.00;99565.53;4993429;28;20547;-65
2023/04/15 04:30:45;;;;;;;0.20;0.20;;;;;;;10.26;100.00;99567.13;4994779;28;20026;-65
2023/04/15 04:33:11;;;;;;;0.20;0.20;;;;;;;10.16;100.00;99570.53;4993868;28;20119;-65
2023/04/15 04:35:39;;;;;;;0.20;0.20;;;;;;;10.05;100.00;99567.59;4993324;28;20365;-65
2023/04/15 04:38:05;;;;;;;0.20;0.20;;;;;;;10.07;100.00;99573.59;4993257;28;20499;-66
2023/04/15 04:40:32;;;;;;;0.20;0.20;;;;;;;10.08;100.00;99585.53;4993240;28;20030;-66
2023/04/15 04:42:58;;;;;;;0.20;0.20;;;;;;;10.04;100.00;99590.22;4994760;28;20026;-66
2023/04/15 04:45:26;;;;;;;0.20;0.20;;;;;;;10.03;100.00;99588.63;4993149;28;20121;-67
2023/04/15 04:47:54;;;;;;;0.20;0.20;;;;;;;10.18;100.00;99579.31;4993148;28;20040;-67
2023/04/15 04:50:22;;;;;;;0.20;0.20;;;;;;;10.12;100.00;99575.22;4993280;28;20033;-66
2023/04/15 04:52:48;;;;;;;0.20;0.20;;;;;;;10.15;100.00;99575.28;4993695;28;20056;-66
2023/04/15 04:55:16;;;;;;;0.20;0.20;;;;;;;10.01;100.00;99580.63;4993080;28;20540;-66
2023/04/15 04:57:47;;;;;;;0.20;0.20;;;;;;;10.02;100.00;99587.00;4992804;28;20034;-66
2023/04/15 05:00:15;;;;;;;0.20;0.20;;;;;;;9.91;100.00;99593.22;4993049;28;20065;-66
2023/04/15 05:02:43;;;;;;;0.20;0.20;;;;;;;9.76;100.00;99598.91;4993932;28;20042;-65
2023/04/15 05:05:10;;;;;;;0.20;0.20;;;;;;;9.55;100.00;99613.22;4996056;28;20031;-66
2023/04/15 05:07:36;;;;;;;0.20;0.20;;;;;;;9.41;100.00;99603.44;4994059;28;20030;-66
2023/04/15 05:10:05;;;;;;;0.20;0.20;;;;;;;9.45;100.00;99601.53;4992868;28;20049;-66
2023/04/15 05:12:33;;;;;;;0.20;0.20;;;;;;;9.50;100.00;99605.19;4995074;28;20042;-67
2023/04/15 05:15:05;;;;;;;0.20;0.20;;;;;;;9.43;100.00;99601.13;4997469;28;20041;-66
2023/04/15 05:17:34;;;;;;;0.20;0.20;;;;;;;9.41;100.00;99597.91;4997287;28;20519;-67
2023/04/15 05:20:00;;;;;;;0.20;0.20;;;;;;;9.42;100.00;99593.94;4996880;28;20026;-67
2023/04/15 05:22:26;;;;;;;0.20;0.20;;;;;;;9.49;100.00;99589.72;4997699;28;20499;-66
2023/04/15 05:24:56;;;;;;;0.20;0.20;;;;;;;9.60;100.00;99587.91;4996725;28;20057;-66
2023/04/15 05:27:24;;;;;;;0.20;0.20;;;;;;;9.81;100.00;99601.38;4996470;28;20125;-66
2023/04/15 05:29:50;;;;;;;0.20;0.20;;;;;;;10.01;100.00;99591.75;4996228;28;20054;-66
2023/04/15 05:32:18;;;;;;;0.20;0.20;;;;;;;10.18;100.00;99596.78;4997333;28;20137;-66
2023/04/15 05:34:46;;;;;;;0.20;0.20;;;;;;;10.23;100.00;99592.91;4996848;28;20428;-66
2023/04/15 05:37:11;;;;;;;0.20;0.20;;;;;;;10.23;100.00;99595.69;4996737;28;20484;-66
2023/04/15 05:39:37;;;;;;;0.20;0.20;;;;;;;10.35;100.00;99591.91;4996459;28;20049;-66
2023/04/15 05:42:04;;;;;;;0.20;0.20;;;;;;;10.61;100.00;99596.63;4996435;28;20030;-66
2023/04/15 05:44:33;;;;;;;0.20;0.20;;;;;;;10.60;100.00;99598.63;4996337;28;20042;-66
2023/04/15 05:47:02;;;;;;;0.20;0.20;;;;;;;10.81;100.00;99611.97;4996576;28;20065;-66
2023/04/15 05:49:32;;;;;;;0.20;0.20;;;;;;;10.84;100.00;99610.44;4996295;28;20129;-66
2023/04/15 05:51:58;;;;;;;0.20;0.20;;;;;;;10.74;100.00;99576.53;4996730;28;20030;-66
2023/04/15 05:54:26;;;;;;;0.20;0.20;;;;;;;10.86;100.00;99597.72;4996452;28;20038;-66
2023/04/15 05:56:56;;;;;;;0.20;0.20;;;;;;;10.79;100.00;99603.22;4997678;28;20102;-66
2023/04/15 05:59:24;;;;;;;0.20;0.20;;;;;;;10.76;100.00;99604.00;4997595;28;20453;-66
2023/04/15 06:01:50;;;;;;;0.20;0.20;;;;;;;10.69;100.00;99598.31;4996020;28;20030;-66
2023/04/15 06:04:16;;;;;;;0.20;0.20;;;;;;;10.77;100.00;99594.44;4996517;28;20054;-66
2023/04/15 06:06:47;;;;;;;0.20;0.20;;;;;;;10.79;100.00;99603.22;4995963;28;20444;-66
2023/04/15 06:09:13;;;;;;;0.20;0.20;;;;;;;10.88;100.00;99595.38;4996251;28;20560;-66
2023/04/15 06:11:41;;;;;;;0.20;0.20;;;;;;;10.91;100.00;99604.94;4996096;28;20026;-67
2023/04/15 06:14:07;;;;;;;0.20;0.20;;;;;;;10.98;100.00;99610.63;4995936;28;20465;-67
2023/04/15 06:16:35;;;;;;;0.20;0.20;;;;;;;10.86;100.00;99603.28;4995843;28;20030;-67
2023/04/15 06:19:01;;;;;;;0.20;0.20;;;;;;;10.91;100.00;99605.75;4995747;28;20044;-66
2023/04/15 06:21:26;;;;;;;0.20;0.20;;;;;;;10.91;100.00;99602.16;4995715;28;20034;-66
2023/04/15 06:23:55;;;;;;;0.20;0.20;;;;;;;10.85;100.00;99606.47;4995454;28;20034;-67
2023/04/15 06:26:23;;;;;;;0.20;0.20;;;;;;;11.01;100.00;99602.28;4995942;28;20480;-67
2023/04/15 06:28:49;;;;;;;0.20;0.20;;;;;;;11.06;100.00;99589.22;4995502;28;20104;-66
2023/04/15 06:31:14;;;;;;;0.20;0.20;;;;;;;11.30;100.00;99604.63;4996070;28;20368;-66
2023/04/15 06:33:42;;;;;;;0.20;0.20;;;;;;;11.47;100.00;99601.19;4995739;28;20437;-66
2023/04/15 06:36:11;;;;;;;0.20;0.20;;;;;;;11.68;100.00;99597.81;4995691;28;20117;-66
2023/04/15 06:38:36;;;;;;;0.20;0.20;;;;;;;12.06;100.00;99605.72;4995436;28;20030;-66
2023/04/15 06:41:05;;;;;;;0.30;0.30;;;;;;;12.19;100.00;99599.84;4995328;28;20032;-65
2023/04/15 06:43:31;;;;;;;0.20;0.20;;;;;;;12.46;100.00;99597.59;4995301;28;20038;-66
2023/04/15 06:46:00;;;;;;;0.20;0.20;;;;;;;14.14;95.88;99604.47;4995840;28;20034;-66
2023/04/15 06:48:25;;;;;;;0.20;0.20;;;;;;;14.81;90.04;99597.16;4995237;28;20089;-66
2023/04/15 06:50:53;;;;;;;0.20;0.20;;;;;;;16.26;83.23;99611.47;4995184;28;20022;-67
2023/04/15 06:53:28;;;;;;;0.20;0.20;;;;;;;16.76;73.52;99605.34;4995367;28;20033;-67
2023/04/15 06:55:56;;;;;;;0.20;0.20;;;;;;;16.89;65.38;99600.00;4995008;28;20034;-67
2023/04/15 06:58:24;;;;;;;0.20;0.20;;;;;;;17.45;65.41;99606.06;4995131;28;20465;-68
2023/04/15 07:00:52;;;;;;;0.13;0.13;;;;;;;16.49;65.67;99597.59;4994792;28;20064;-67
2023/04/15 07:03:17;;;;;;;0.20;0.20;;;;;;;15.53;70.68;99591.97;4995517;28;20089;-67
2023/04/15 07:05:51;;;;;;;0.20;0.20;;;;;;;14.89;74.00;99585.50;4995440;28;20026;-68
2023/04/15 07:08:21;;;;;;;0.20;0.20;;;;;;;14.09;76.14;99583.28;4995062;28;20464;-68
2023/04/15 07:10:47;;;;;;;0.20;0.20;;;;;;;14.03;81.87;99570.91;4995137;28;20038;-68
2023/04/15 07:13:13;;;;;;;0.20;0.20;;;;;;;13.90;83.43;99575.28;4994717;28;20481;-68
2023/04/15 07:15:38;;;;;;;0.20;0.20;;;;;;;13.94;82.41;99572.50;4994691;28;20027;-68
2023/04/15 07:18:06;;;;;;;0.20;0.20;;;;;;;13.98;80.58;99568.50;4994850;28;20085;-68
2023/04/15 07:20:34;;;;;;;0.20;0.20;;;;;;;13.79;81.40;99571.69;4994838;28;20551;-67
2023/04/15 07:23:02;;;;;;;0.20;0.20;;;;;;;13.97;84.40;99578.09;4994541;28;20030;-67
2023/04/15 07:25:32;;;;;;;0.20;0.20;;;;;;;14.10;82.39;99590.47;4995275;28;20022;-67
2023/04/15 07:28:01;;;;;;;0.20;0.20;;;;;;;14.02;81.00;99580.50;4995095;28;20038;-67
2023/04/15 07:30:27;;;;;;;0.20;0.20;;;;;;;14.65;80.28;99578.81;4997527;28;20065;-68
2023/04/15 07:32:53;;;;;;;0.20;0.20;;;;;;;15.06;78.22;99585.81;4997589;28;20487;-67
2023/04/15 07:35:21;;;;;;;0.22;0.22;;;;;;;15.35;75.23;99578.09;4998030;28;20030;-68
2023/04/15 07:37:47;;;;;;;0.20;0.20;;;;;;;15.48;71.06;99578.38;4998568;28;20088;-67
2023/04/15 07:40:15;;;;;;;0.20;0.20;;;;;;;15.26;73.23;99577.72;4997507;28;20033;-67
2023/04/15 07:42:41;;;;;;;0.20;0.20;;;;;;;14.70;74.20;99579.56;5015301;28;20032;-67
2023/04/15 07:45:08;;;;;;;0.20;0.20;;;;;;;14.29;76.82;99580.06;4997465;28;20038;-67
2023/04/15 07:47:36;;;;;;;0.20;0.20;;;;;;;13.99;78.46;99588.88;5014943;28;20026;-67
2023/04/15 07:50:04;;;;;;;0.20;0.20;;;;;;;14.16;79.20;99588.06;5015380;28;20029;-66
2023/04/15 07:52:37;;;;;;;0.20;0.20;;;;;;;14.43;79.34;99566.03;4997189;28;20120;-67
2023/04/15 07:55:09;;;;;;;0.20;0.20;;;;;;;14.54;79.35;99572.44;4997698;28;20029;-66
2023/04/15 07:57:36;;;;;;;0.20;0.20;;;;;;;14.56;76.15;99575.63;4997366;28;20053;-67
2023/04/15 08:00:06;;;;;;;0.20;0.20;;;;;;;14.54;77.07;99566.84;4997511;28;20224;-67
2023/04/15 08:02:32;;;;;;;0.20;0.20;;;;;;;14.53;74.75;99559.63;5014427;28;20057;-67
2023/04/15 08:05:03;;;;;;;0.20;0.20;;;;;;;14.44;75.78;99567.66;4997047;28;20484;-66
2023/04/15 08:07:31;;;;;;;0.20;0.20;;;;;;;14.54;75.66;99569.66;4997023;28;20036;-67
2023/04/15 08:09:56;;;;;;;0.20;0.20;;;;;;;14.73;75.06;99573.97;4997193;28;20033;-67
2023/04/15 08:12:26;;;;;;;0.20;0.20;;;;;;;14.75;74.74;99570.75;4996917;28;20034;-68
2023/04/15 08:14:51;;;;;;;0.20;0.20;;;;;;;14.63;76.98;99574.81;4997167;28;20026;-67
2023/04/15 08:17:17;;;;;;;0.20;0.20;;;;;;;14.74;77.74;99564.34;4996540;28;20048;-67
2023/04/15 08:19:47;;;;;;;0.20;0.20;;;;;;;14.71;77.11;99570.00;4997098;28;20384;-67
2023/04/15 08:22:13;;;;;;;0.20;0.20;;;;;;;14.74;77.24;99581.16;4996490;28;20037;-67
2023/04/15 08:24:44;;;;;;;0.20;0.20;;;;;;;14.52;75.87;99569.22;4996978;28;20033;-67
2023/04/15 08:27:14;;;;;;;0.20;0.20;;;;;;;14.34;77.10;99574.84;5014047;28;20026;-66
2023/04/15 08:29:42;;;;;;;0.20;0.20;;;;;;;14.42;77.98;99575.63;4996222;28;20053;-67
2023/04/15 08:32:08;;;;;;;0.20;0.20;;;;;;;14.47;75.33;99578.03;4996594;28;20155;-67
2023/04/15 08:34:34;;;;;;;0.20;0.20;;;;;;;14.65;76.51;99567.59;4996873;28;20041;-66
2023/04/15 08:36:59;;;;;;;0.20;0.20;;;;;;;14.94;74.32;99564.69;4996559;28;20041;-67
2023/04/15 08:39:26;;;;;;;0.20;0.20;;;;;;;15.32;73.83;99560.06;4996368;28;20040;-67
2023/04/15 08:41:59;;;;;;;0.20;0.20;;;;;;;16.44;67.94;99567.16;4997007;28;20468;-66
2023/04/15 08:44:26;;;;;;;0.20;0.20;;;;;;;17.11;63.27;99567.59;4996646;28;20116;-67
2023/04/15 08:46:55;;;;;;;0.20;0.20;;;;;;;16.76;61.55;99564.00;4994865;28;20030;-66
2023/04/15 08:49:26;;;;;;;0.20;0.20;;;;;;;16.45;63.30;99568.72;4996267;28;20030;-66
2023/04/15 08:51:51;;;;;;;0.20;0.20;;;;;;;16.41;63.72;99578.44;4996590;28;20083;-66
2023/04/15 08:54:20;;;;;;;0.20;0.20;;;;;;;15.96;67.22;99564.41;4996387;28;20029;-66
2023/04/15 08:56:47;;;;;;;0.20;0.20;;;;;;;15.28;69.69;99561.28;4996153;28;20038;-66
2023/04/15 08:59:13;;;;;;;0.20;0.20;;;;;;;15.02;71.88;99574.66;4994837;28;20538;-66
2023/04/15 09:01:40;;;;;;;0.20;0.20;;;;;;;14.73;73.35;99570.38;5014209;28;20034;-67
2023/04/15 09:04:09;;;;;;;0.20;0.20;;;;;;;14.30;73.89;99573.25;5013824;28;20037;-67
2023/04/15 09:06:35;;;;;;;0.20;0.20;;;;;;;14.10;71.62;99559.69;4996520;28;20391;-66
2023/04/15 09:09:00;;;;;;;0.20;0.20;;;;;;;14.14;71.78;99574.47;4996301;28;20034;-67
2023/04/15 09:11:26;;;;;;;0.20;0.20;;;;;;;14.03;73.45;99568.09;4996210;28;20037;-67
2023/04/15 09:13:51;;;;;;;0.20;0.20;;;;;;;14.01;74.73;99567.72;4996870;28;20033;-68
2023/04/15 09:16:20;;;;;;;0.20;0.20;;;;;;;14.00;77.74;99568.09;4996493;28;20416;-68
2023/04/15 09:18:45;;;;;;;0.20;0.20;;;;;;;13.90;80.39;99569.69;4996635;28;20535;-69
2023/04/15 09:21:13;;;;;;;0.20;0.20;;;;;;;13.74;83.17;99570.13;4996130;28;20121;-69
2023/04/15 09:23:52;;;;;;;0.20;0.20;;;;;;;13.84;85.31;99571.31;4995363;28;20034;-69
2023/04/15 09:26:20;;;;;;;0.20;0.20;;;;;;;13.73;86.54;99573.31;4995952;28;20038;-69
2023/04/15 09:28:50;;;;;;;0.20;0.20;;;;;;;13.82;87.44;99560.53;4992827;28;20058;-69
2023/04/15 09:31:28;;;;;;;0.20;0.20;;;;;;;14.04;87.40;99569.69;4992970;28;20496;-68
2023/04/15 09:33:59;;;;;;;0.20;0.20;;;;;;;14.18;87.18;99571.69;4992813;28;20034;-69
2023/04/15 09:36:28;;;;;;;0.20;0.20;;;;;;;14.08;84.61;99578.88;4994073;28;20018;-69
2023/04/15 09:38:58;;;;;;;0.20;0.20;;;;;;;13.89;85.57;99579.28;4992738;28;20546;-69
2023/04/15 09:41:27;;;;;;;0.20;0.20;;;;;;;13.86;86.41;99582.91;4992711;28;20073;-70
2023/04/15 09:43:52;;;;;;;0.20;0.20;;;;;;;13.62;83.53;99585.28;4993921;28;20038;-70
2023/04/15 09:46:18;;;;;;;0.20;0.20;;;;;;;13.60;85.24;99584.88;4992695;28;20484;-70
2023/04/15 09:49:09;;;;;;;0.20;0.20;;;;;;;13.20;87.44;99574.00;4992752;28;20061;-69
2023/04/15 09:51:34;;;;;;;0.20;0.20;;;;;;;13.22;88.60;99575.25;4992917;28;20026;-69
2023/04/15 09:54:03;;;;;;;0.20;0.20;;;;;;;12.97;89.54;99577.91;4992788;28;20495;-69
2023/04/15 09:56:41;;;;;;;0.20;0.20;;;;;;;12.93;91.92;99591.06;4992827;28;20031;-71
2023/04/15 09:59:07;;;;;;;0.20;0.20;;;;;;;12.76;94.61;99600.16;4997065;28;20026;-70
2023/04/15 10:01:33;;;;;;;0.20;0.20;;;;;;;12.67;98.40;99616.47;4998962;28;20038;-71
2023/04/15 10:04:02;;;;;;;0.20;0.20;;;;;;;12.37;99.83;99614.72;4998446;28;20038;-70
2023/04/15 10:06:28;;;;;;;0.20;0.20;;;;;;;12.17;100.00;99603.00;4995600;28;20034;-70
2023/04/15 10:08:55;;;;;;;0.20;0.20;;;;;;;11.95;100.00;99574.19;4996063;28;20044;-69
2023/04/15 10:11:27;;;;;;;0.20;0.20;;;;;;;12.02;100.00;99610.47;4995140;28;20034;-69
2023/04/15 10:13:54;;;;;;;0.20;0.20;;;;;;;11.83;100.00;99602.38;4995713;28;20382;-70
2023/04/15 10:16:27;;;;;;;0.20;0.20;;;;;;;11.72;100.00;99588.31;4996827;28;20022;-70
2023/04/15 10:19:00;;;;;;;0.20;0.20;;;;;;;11.67;100.00;99582.28;4996313;28;20030;-70
2023/04/15 10:21:27;;;;;;;0.20;0.20;;;;;;;11.67;100.00;99577.50;4994829;28;20477;-69
2023/04/15 10:23:53;;;;;;;0.20;0.20;;;;;;;11.59;100.00;99583.41;4995765;28;20057;-69
2023/04/15 10:26:21;;;;;;;0.20;0.20;;;;;;;11.64;100.00;99569.09;4995932;28;20058;-70
2023/04/15 10:28:49;;;;;;;0.20;0.20;;;;;;;11.74;100.00;99585.94;4995343;28;20054;-69
2023/04/15 10:31:16;;;;;;;0.20;0.20;;;;;;;11.68;100.00;99575.53;4995357;28;20030;-70
2023/04/15 10:33:43;;;;;;;0.20;0.20;;;;;;;11.65;100.00;99582.66;4995691;28;20122;-70
2023/04/15 10:36:12;;;;;;;0.20;0.20;;;;;;;11.71;100.00;99585.88;4995748;28;20362;-69
2023/04/15 10:38:45;;;;;;;0.20;0.20;;;;;;;11.75;100.00;99600.66;4995657;28;20038;-70
2023/04/15 10:41:14;;;;;;;0.20;0.20;;;;;;;11.69;100.00;99594.63;4995350;28;20026;-69
2023/04/15 10:43:48;;;;;;;0.20;0.20;;;;;;;11.70;100.00;99595.44;4996128;28;20030;-69
2023/04/15 10:46:19;;;;;;;0.20;0.20;;;;;;;11.71;100.00;99588.66;4996213;28;20033;-70
2023/04/15 10:48:52;;;;;;;0.20;0.20;;;;;;;11.40;100.00;99587.19;4995233;28;20062;-71
2023/04/15 10:51:29;;;;;;;0.20;0.20;;;;;;;11.23;100.00;99575.47;4995684;28;20026;-72
2023/04/15 10:54:01;;;;;;;0.20;0.20;;;;;;;11.15;100.00;99565.47;4993848;28;20035;-71
2023/04/15 10:56:30;;;;;;;0.20;0.20;;;;;;;11.17;100.00;99576.22;4994644;28;20397;-71
2023/04/15 10:59:00;;;;;;;0.30;0.30;;;;;;;11.17;100.00;99581.78;4995636;28;20088;-71
2023/04/15 11:01:58;;;;;;;0.20;0.20;;;;;;;11.23;100.00;99571.91;4995047;28;20031;-71
2023/04/15 11:04:56;;;;;;;0.20;0.20;;;;;;;11.30;100.00;99566.41;4994969;28;20114;-70
2023/04/15 11:07:47;;;;;;;0.20;0.20;;;;;;;11.37;100.00;99558.13;4994829;28;20026;-70
2023/04/15 11:10:13;;;;;;;0.20;0.20;;;;;;;11.48;100.00;99556.25;4987999;28;20093;-70
2023/04/15 11:12:40;;;;;;;0.20;0.20;;;;;;;11.55;100.00;99553.50;4995335;28;20437;-70
2023/04/15 11:15:25;;;;;;;0.20;0.20;;;;;;;11.70;100.00;99557.22;4995796;28;20117;-70
2023/04/15 11:17:51;;;;;;;0.20;0.20;;;;;;;11.79;100.00;99556.91;4994556;28;20030;-70
2023/04/15 11:20:17;;;;;;;0.20;0.20;;;;;;;11.83;100.00;99560.56;4994569;28;20030;-70
2023/04/15 11:22:58;;;;;;;0.20;0.20;;;;;;;11.96;100.00;99556.25;4994551;28;20079;-71
2023/04/15 11:26:01;;;;;;;0.20;0.20;;;;;;;12.11;100.00;99548.00;4994070;28;20034;-71
2023/04/15 11:28:28;;;;;;;0.20;0.20;;;;;;;12.20;100.00;99546.47;4994187;28;20050;-71
2023/04/15 11:30:54;;;;;;;0.20;0.20;;;;;;;11.98;100.00;99547.50;4994125;28;20038;-71
2023/04/15 11:33:21;;;;;;;0.20;0.20;;;;;;;11.90;100.00;99541.09;4994382;28;20026;-71
2023/04/15 11:35:47;;;;;;;0.20;0.20;;;;;;;11.84;100.00;99539.84;4994324;28;20411;-71